createdAt,value
2019-06-26T00:00:38.909Z,27.70
2019-06-26T00:03:08.282Z,27.70
2019-06-26T00:05:37.653Z,27.70
2019-06-26T00:08:07.095Z,27.70
2019-06-26T00:10:36.525Z,27.60
2019-06-26T00:13:05.896Z,27.60
2019-06-26T00:15:35.220Z,27.50
2019-06-26T00:18:04.862Z,27.50
2019-06-26T00:20:34.186Z,27.50
2019-06-26T00:23:03.564Z,27.40
2019-06-26T00:25:33.109Z,27.40
2019-06-26T00:28:03.601Z,27.30
2019-06-26T00:30:32.922Z,27.30
2019-06-26T00:33:02.264Z,27.30
2019-06-26T00:35:31.583Z,27.20
2019-06-26T00:38:00.913Z,27.20
2019-06-26T00:40:30.235Z,27.20
2019-06-26T00:42:59.567Z,27.20
2019-06-26T00:45:28.953Z,27.10
2019-06-26T00:47:58.321Z,27.10
2019-06-26T00:50:29.120Z,27.10
2019-06-26T00:52:58.453Z,27.00
2019-06-26T00:55:27.788Z,27.00
2019-06-26T00:57:57.125Z,26.90
2019-06-26T01:00:32.441Z,26.90
2019-06-26T01:03:01.774Z,26.90
2019-06-26T01:05:31.102Z,26.80
2019-06-26T01:08:00.450Z,26.80
2019-06-26T01:10:29.830Z,26.80
2019-06-26T01:12:59.182Z,26.80
2019-06-26T01:15:28.773Z,26.70
2019-06-26T01:17:58.191Z,26.60
2019-06-26T01:20:27.583Z,26.60
2019-06-26T01:22:56.926Z,26.60
2019-06-26T01:25:26.261Z,26.50
2019-06-26T01:27:55.603Z,26.50
2019-06-26T01:30:25.094Z,26.40
2019-06-26T01:32:54.505Z,26.40
2019-06-26T01:35:23.838Z,26.30
2019-06-26T01:37:54.154Z,26.30
2019-06-26T01:40:23.495Z,26.20
2019-06-26T01:42:52.848Z,26.20
2019-06-26T01:45:22.171Z,26.10
2019-06-26T01:47:51.532Z,26.10
2019-06-26T01:50:21.091Z,26.10
2019-06-26T01:52:50.441Z,26.00
2019-06-26T01:55:19.781Z,26.00
2019-06-26T01:57:49.122Z,26.00
2019-06-26T02:00:19.584Z,26.00
2019-06-26T02:02:48.929Z,26.00
2019-06-26T02:05:18.255Z,25.90
2019-06-26T02:07:47.614Z,25.90
2019-06-26T02:10:17.177Z,25.90
2019-06-26T02:12:47.484Z,25.90
2019-06-26T02:15:16.999Z,25.80
2019-06-26T02:17:46.397Z,25.80
2019-06-26T02:20:15.839Z,25.80
2019-06-26T02:22:45.197Z,25.70
2019-06-26T02:25:14.585Z,25.70
2019-06-26T02:27:43.931Z,25.60
2019-06-26T02:30:13.593Z,25.50
2019-06-26T02:32:42.932Z,25.50
2019-06-26T02:35:12.396Z,25.50
2019-06-26T02:37:41.726Z,25.40
2019-06-26T02:40:11.608Z,25.30
2019-06-26T02:42:41.010Z,25.30
2019-06-26T02:45:10.773Z,25.30
2019-06-26T02:47:40.128Z,25.20
2019-06-26T02:50:12.328Z,25.20
2019-06-26T02:52:41.721Z,25.20
2019-06-26T02:55:11.211Z,25.10
2019-06-26T02:57:40.547Z,25.10
2019-06-26T03:00:09.894Z,25.00
2019-06-26T03:02:40.886Z,24.90
2019-06-26T03:05:10.290Z,24.90
2019-06-26T03:07:39.636Z,24.90
2019-06-26T03:10:09.310Z,24.80
2019-06-26T03:12:38.657Z,24.80
2019-06-26T03:15:09.678Z,24.70
2019-06-26T03:17:54.221Z,24.70
2019-06-26T03:20:10.525Z,24.60
2019-06-26T03:22:39.869Z,24.60
2019-06-26T03:25:11.056Z,24.60
2019-06-26T03:27:40.383Z,24.50
2019-06-26T03:30:09.912Z,24.50
2019-06-26T03:32:39.310Z,24.50
2019-06-26T03:35:08.871Z,24.50
2019-06-26T03:37:38.274Z,24.40
2019-06-26T03:40:07.961Z,24.40
2019-06-26T03:42:37.603Z,24.40
2019-06-26T03:45:07.596Z,24.40
2019-06-26T03:47:38.200Z,24.30
2019-06-26T03:50:08.342Z,24.30
2019-06-26T03:52:37.736Z,24.20
2019-06-26T03:55:07.311Z,24.20
2019-06-26T03:57:36.639Z,24.20
2019-06-26T04:00:09.669Z,24.20
2019-06-26T04:02:38.997Z,24.10
2019-06-26T04:05:08.692Z,24.10
2019-06-26T04:07:38.026Z,24.10
2019-06-26T04:10:08.002Z,24.10
2019-06-26T04:12:37.332Z,24.20
2019-06-26T04:15:08.975Z,24.20
2019-06-26T04:17:38.304Z,24.20
2019-06-26T04:20:08.095Z,24.20
2019-06-26T04:22:37.410Z,24.20
2019-06-26T04:25:07.273Z,24.10
2019-06-26T04:27:36.619Z,24.10
2019-06-26T04:30:07.789Z,24.10
2019-06-26T04:32:37.147Z,24.10
2019-06-26T04:35:07.047Z,24.00
2019-06-26T04:37:37.421Z,24.00
2019-06-26T04:40:09.185Z,24.00
2019-06-26T04:42:38.527Z,24.00
2019-06-26T04:45:09.242Z,24.00
2019-06-26T04:47:38.577Z,24.00
2019-06-26T04:50:09.944Z,24.00
2019-06-26T04:52:39.287Z,24.00
2019-06-26T04:55:08.699Z,24.00
2019-06-26T04:57:38.029Z,24.00
2019-06-26T05:00:08.221Z,24.00
2019-06-26T05:02:38.835Z,24.00
2019-06-26T05:05:09.127Z,24.00
2019-06-26T05:07:38.477Z,24.00
2019-06-26T05:10:08.940Z,24.00
2019-06-26T05:12:38.254Z,24.00
2019-06-26T05:15:10.323Z,23.90
2019-06-26T05:17:40.952Z,23.90
2019-06-26T05:20:10.637Z,23.80
2019-06-26T05:22:39.973Z,23.90
2019-06-26T05:25:09.879Z,23.80
2019-06-26T05:27:39.228Z,23.80
2019-06-26T05:30:10.487Z,23.80
2019-06-26T05:32:39.820Z,23.80
2019-06-26T05:35:10.208Z,23.90
2019-06-26T05:37:39.533Z,23.80
2019-06-26T05:40:11.077Z,23.80
2019-06-26T05:42:40.414Z,23.80
2019-06-26T05:45:12.054Z,23.80
2019-06-26T05:47:41.465Z,23.90
2019-06-26T05:50:11.374Z,23.90
2019-06-26T05:52:42.663Z,23.90
2019-06-26T05:55:12.244Z,23.90
2019-06-26T05:57:42.247Z,23.90
2019-06-26T06:00:12.626Z,23.90
2019-06-26T06:02:42.040Z,24.00
2019-06-26T06:05:11.919Z,24.10
2019-06-26T06:07:41.247Z,24.10
2019-06-26T06:10:10.937Z,24.10
2019-06-26T06:12:40.346Z,24.20
2019-06-26T06:15:10.730Z,24.20
2019-06-26T06:17:40.056Z,24.20
2019-06-26T06:20:09.848Z,24.20
2019-06-26T06:22:39.255Z,24.30
2019-06-26T06:25:08.760Z,24.30
2019-06-26T06:27:38.105Z,24.40
2019-06-26T06:30:08.136Z,24.40
2019-06-26T06:32:39.208Z,24.40
2019-06-26T06:35:09.413Z,24.40
2019-06-26T06:37:38.785Z,24.40
2019-06-26T06:40:08.644Z,24.50
2019-06-26T06:42:38.177Z,24.50
2019-06-26T06:45:08.262Z,24.50
2019-06-26T06:47:37.668Z,24.50
2019-06-26T06:50:07.561Z,24.60
2019-06-26T06:52:36.945Z,24.60
2019-06-26T06:55:08.029Z,24.60
2019-06-26T06:57:37.435Z,24.80
2019-06-26T07:00:07.912Z,24.80
2019-06-26T07:02:37.362Z,24.90
2019-06-26T07:05:07.279Z,25.00
2019-06-26T07:07:36.774Z,25.10
2019-06-26T07:10:06.860Z,25.20
2019-06-26T07:12:36.243Z,25.20
2019-06-26T07:15:07.839Z,25.20
2019-06-26T07:17:37.586Z,25.20
2019-06-26T07:20:08.419Z,25.30
2019-06-26T07:22:37.759Z,25.30
2019-06-26T07:25:07.260Z,25.30
2019-06-26T07:27:36.585Z,25.30
2019-06-26T07:30:06.961Z,25.30
2019-06-26T07:32:36.306Z,25.50
2019-06-26T07:35:06.485Z,25.50
2019-06-26T07:37:35.806Z,25.50
2019-06-26T07:40:07.515Z,25.60
2019-06-26T07:42:36.845Z,25.70
2019-06-26T07:45:06.425Z,25.70
2019-06-26T07:47:43.160Z,25.80
2019-06-26T07:50:09.508Z,25.80
2019-06-26T07:52:38.961Z,25.90
2019-06-26T07:55:11.943Z,26.10
2019-06-26T07:57:40.642Z,26.20
2019-06-26T08:00:10.452Z,26.30
2019-06-26T08:02:39.833Z,26.40
2019-06-26T08:05:09.709Z,26.50
2019-06-26T08:07:39.104Z,26.50
2019-06-26T08:10:09.273Z,26.50
2019-06-26T08:12:38.589Z,26.50
2019-06-26T08:15:08.456Z,26.50
2019-06-26T08:17:37.780Z,26.70
2019-06-26T08:20:07.466Z,26.70
2019-06-26T08:22:36.796Z,26.90
2019-06-26T08:25:07.440Z,27.00
2019-06-26T08:27:36.947Z,27.20
2019-06-26T08:30:07.612Z,27.30
2019-06-26T08:32:36.934Z,27.40
2019-06-26T08:35:07.916Z,27.60
2019-06-26T08:37:37.483Z,27.70
2019-06-26T08:40:07.257Z,27.70
2019-06-26T08:42:36.577Z,27.90
2019-06-26T08:45:09.128Z,28.10
2019-06-26T08:47:38.463Z,28.20
2019-06-26T08:50:08.827Z,28.30
2019-06-26T08:52:38.334Z,28.40
2019-06-26T08:55:08.225Z,28.50
2019-06-26T08:57:37.644Z,28.60
2019-06-26T09:00:11.487Z,28.80
2019-06-26T09:02:40.900Z,28.90
2019-06-26T09:05:11.647Z,29.00
2019-06-26T09:07:41.437Z,29.20
2019-06-26T09:10:11.040Z,29.20
2019-06-26T09:12:40.409Z,29.30
2019-06-26T09:15:10.009Z,29.40
2019-06-26T09:17:39.399Z,29.50
2019-06-26T09:20:09.089Z,29.60
2019-06-26T09:22:38.473Z,29.80
2019-06-26T09:25:21.069Z,29.90
2019-06-26T09:27:39.863Z,30.00
2019-06-26T09:30:09.748Z,30.10
2019-06-26T09:32:39.088Z,30.10
2019-06-26T09:35:08.582Z,30.30
2019-06-26T09:37:37.918Z,30.30
2019-06-26T09:40:07.497Z,30.40
2019-06-26T09:42:36.816Z,30.30
2019-06-26T09:45:09.889Z,30.30
2019-06-26T09:47:39.222Z,30.40
2019-06-26T09:50:08.919Z,30.50
2019-06-26T09:52:38.243Z,30.60
2019-06-26T09:55:07.783Z,30.70
2019-06-26T09:57:38.353Z,30.90
2019-06-26T10:00:12.434Z,30.90
2019-06-26T10:02:41.841Z,31.00
2019-06-26T10:05:12.111Z,31.10
2019-06-26T10:07:42.412Z,31.20
2019-06-26T10:10:13.267Z,31.40
2019-06-26T10:12:42.592Z,31.40
2019-06-26T10:15:12.015Z,31.30
2019-06-26T10:17:41.504Z,31.30
2019-06-26T10:20:11.409Z,31.10
2019-06-26T10:22:40.768Z,31.20
2019-06-26T10:25:11.542Z,31.20
2019-06-26T10:27:41.173Z,31.30
2019-06-26T10:30:10.995Z,31.30
2019-06-26T10:32:40.328Z,31.40
2019-06-26T10:35:10.009Z,31.30
2019-06-26T10:37:39.354Z,31.30
2019-06-26T10:40:09.763Z,31.40
2019-06-26T10:42:39.118Z,31.30
2019-06-26T10:45:09.464Z,31.40
2019-06-26T10:47:39.942Z,31.50
2019-06-26T10:50:10.192Z,31.70
2019-06-26T10:52:39.564Z,32.00
2019-06-26T10:55:09.527Z,32.00
2019-06-26T10:57:38.936Z,32.00
2019-06-26T11:00:10.895Z,32.10
2019-06-26T11:02:40.359Z,32.30
2019-06-26T11:05:11.735Z,32.20
2019-06-26T11:07:41.065Z,32.40
2019-06-26T11:10:10.825Z,32.30
2019-06-26T11:12:40.184Z,32.10
2019-06-26T11:15:09.847Z,32.10
2019-06-26T11:17:39.214Z,32.30
2019-06-26T11:20:09.141Z,32.20
2019-06-26T11:22:38.767Z,32.20
2019-06-26T11:25:08.941Z,32.30
2019-06-26T11:27:38.287Z,32.50
2019-06-26T11:30:11.388Z,32.40
2019-06-26T11:32:40.805Z,32.30
2019-06-26T11:35:11.255Z,32.30
2019-06-26T11:37:40.672Z,32.10
2019-06-26T11:40:10.170Z,32.10
2019-06-26T11:42:39.589Z,32.20
2019-06-26T11:45:09.525Z,32.30
2019-06-26T11:47:38.858Z,32.40
2019-06-26T11:50:09.041Z,32.50
2019-06-26T11:52:38.628Z,32.60
2019-06-26T11:55:09.061Z,32.80
2019-06-26T11:57:38.719Z,33.10
2019-06-26T12:00:14.169Z,33.00
2019-06-26T12:02:43.522Z,33.10
2019-06-26T12:05:13.411Z,33.00
2019-06-26T12:07:42.900Z,33.00
2019-06-26T12:10:13.117Z,32.90
2019-06-26T12:12:42.672Z,32.90
2019-06-26T12:15:13.866Z,33.00
2019-06-26T12:17:44.342Z,33.20
2019-06-26T12:20:19.001Z,33.30
2019-06-26T12:22:47.784Z,33.40
2019-06-26T12:25:17.409Z,33.70
2019-06-26T12:27:46.845Z,33.80
2019-06-26T12:30:17.176Z,33.90
2019-06-26T12:33:01.517Z,34.00
2019-06-26T12:35:17.722Z,34.10
2019-06-26T12:37:47.132Z,34.30
2019-06-26T12:40:16.613Z,34.30
2019-06-26T12:42:45.972Z,34.30
2019-06-26T12:45:15.361Z,34.50
2019-06-26T12:47:44.793Z,34.70
2019-06-26T12:50:15.337Z,34.70
2019-06-26T12:52:45.954Z,34.70
2019-06-26T12:55:15.358Z,34.70
2019-06-26T12:57:45.148Z,35.00
2019-06-26T13:00:16.110Z,35.10
2019-06-26T13:02:45.456Z,35.10
2019-06-26T13:05:15.135Z,35.10
2019-06-26T13:07:44.558Z,35.10
2019-06-26T13:10:14.138Z,35.10
2019-06-26T13:12:45.865Z,35.10
2019-06-26T13:15:15.499Z,35.20
2019-06-26T13:17:44.853Z,35.20
2019-06-26T13:20:16.781Z,35.10
2019-06-26T13:22:46.120Z,34.90
2019-06-26T13:25:16.255Z,34.50
2019-06-26T13:27:45.835Z,34.40
2019-06-26T13:30:16.844Z,34.40
2019-06-26T13:32:46.213Z,34.50
2019-06-26T13:35:15.553Z,34.60
2019-06-26T13:37:44.894Z,34.80
2019-06-26T13:40:14.221Z,35.00
2019-06-26T13:42:43.556Z,35.20
2019-06-26T13:45:13.054Z,35.30
2019-06-26T13:47:42.404Z,35.40
2019-06-26T13:50:11.898Z,35.60
2019-06-26T13:52:41.315Z,35.60
2019-06-26T13:55:11.104Z,35.70
2019-06-26T13:57:40.479Z,35.80
2019-06-26T14:00:10.428Z,35.80
2019-06-26T14:02:39.921Z,35.80
2019-06-26T14:05:09.509Z,35.80
2019-06-26T14:07:38.855Z,35.80
2019-06-26T14:10:10.178Z,35.70
2019-06-26T14:12:39.526Z,35.80
2019-06-26T14:15:09.378Z,35.80
2019-06-26T14:17:38.745Z,35.70
2019-06-26T14:20:12.485Z,35.60
2019-06-26T14:22:55.954Z,35.40
2019-06-26T14:25:25.536Z,35.20
2019-06-26T14:27:55.352Z,35.10
2019-06-26T14:30:27.862Z,35.10
2019-06-26T14:33:16.760Z,35.10
2019-06-26T14:35:53.310Z,35.10
2019-06-26T14:38:23.837Z,35.20
2019-06-26T14:40:53.329Z,35.20
2019-06-26T14:43:22.683Z,35.20
2019-06-26T14:45:52.022Z,35.10
2019-06-26T14:48:21.567Z,35.10
2019-06-26T14:50:51.899Z,35.20
2019-06-26T14:53:21.357Z,35.30
2019-06-26T14:55:51.016Z,35.30
2019-06-26T14:58:20.359Z,35.20
2019-06-26T15:00:49.714Z,35.20
2019-06-26T15:03:19.391Z,35.20
2019-06-26T15:05:48.781Z,35.20
2019-06-26T15:08:18.143Z,35.20
2019-06-26T15:10:47.543Z,35.30
2019-06-26T15:13:16.881Z,35.40
2019-06-26T15:15:46.207Z,35.60
2019-06-26T15:18:25.299Z,35.60
2019-06-26T15:20:59.521Z,35.60
2019-06-26T15:23:27.763Z,35.60
2019-06-26T15:25:58.568Z,35.80
2019-06-26T15:28:27.971Z,35.80
2019-06-26T15:30:57.299Z,35.80
2019-06-26T15:33:26.634Z,35.70
2019-06-26T15:35:55.962Z,35.60
2019-06-26T15:38:25.350Z,35.50
2019-06-26T15:40:54.692Z,35.40
2019-06-26T15:43:24.099Z,35.40
2019-06-26T15:45:53.672Z,35.40
2019-06-26T15:52:31.496Z,35.10
2019-06-26T15:55:00.096Z,35.00
2019-06-26T15:57:30.948Z,35.10
2019-06-26T16:00:00.285Z,35.20
2019-06-26T16:02:30.018Z,35.20
2019-06-26T16:04:59.340Z,35.10
2019-06-26T16:07:31.620Z,35.00
2019-06-26T16:10:01.043Z,34.70
2019-06-26T16:12:30.400Z,34.50
2019-06-26T16:14:59.774Z,34.30
2019-06-26T16:17:33.707Z,34.30
2019-06-26T16:20:03.675Z,34.30
2019-06-26T16:22:33.069Z,34.20
2019-06-26T16:25:02.428Z,34.20
2019-06-26T16:27:31.766Z,34.20
2019-06-26T16:30:01.091Z,34.30
2019-06-26T16:32:31.589Z,34.30
2019-06-26T16:35:00.922Z,34.20
2019-06-26T16:37:30.251Z,34.10
2019-06-26T16:39:59.570Z,34.00
2019-06-26T16:42:28.904Z,33.90
2019-06-26T16:44:58.235Z,33.80
2019-06-26T16:47:27.562Z,33.80
2019-06-26T16:49:56.890Z,33.70
2019-06-26T16:52:26.230Z,33.50
2019-06-26T16:54:55.557Z,33.30
2019-06-26T16:57:24.882Z,33.10
2019-06-26T17:00:08.809Z,32.90
2019-06-26T17:02:27.900Z,32.80
2019-06-26T17:04:57.290Z,32.70
2019-06-26T17:07:27.281Z,32.60
2019-06-26T17:09:56.724Z,32.40
2019-06-26T17:12:26.097Z,32.20
2019-06-26T17:14:55.430Z,32.00
2019-06-26T17:17:24.854Z,31.90
2019-06-26T17:19:54.185Z,31.80
2019-06-26T17:22:23.505Z,31.70
2019-06-26T17:24:52.836Z,31.50
2019-06-26T17:27:22.155Z,31.40
2019-06-26T17:29:51.708Z,31.30
2019-06-26T17:32:21.041Z,31.20
2019-06-26T17:34:50.378Z,31.00
2019-06-26T17:37:19.932Z,31.00
2019-06-26T17:39:50.537Z,30.80
2019-06-26T17:42:20.109Z,30.80
2019-06-26T17:44:49.437Z,30.60
2019-06-26T17:47:18.760Z,30.50
2019-06-26T17:49:48.089Z,30.50
2019-06-26T17:52:17.437Z,30.30
2019-06-26T17:54:46.774Z,30.10
2019-06-26T17:57:16.093Z,30.00
2019-06-26T17:59:45.447Z,29.80
2019-06-26T18:02:15.748Z,29.70
2019-06-26T18:04:45.342Z,29.50
2019-06-26T18:07:14.661Z,29.40
2019-06-26T18:09:43.994Z,29.30
2019-06-26T18:12:13.316Z,29.30
2019-06-26T18:14:43.436Z,29.20
2019-06-26T18:17:21.999Z,29.20
2019-06-26T18:19:44.858Z,29.20
2019-06-26T18:22:14.179Z,29.10
2019-06-26T18:24:43.845Z,29.00
2019-06-26T18:27:14.129Z,29.00
2019-06-26T18:29:43.455Z,28.80
2019-06-26T18:32:12.769Z,28.70
2019-06-26T18:34:42.102Z,28.60
2019-06-26T18:37:11.426Z,28.50
2019-06-26T18:39:40.771Z,28.40
2019-06-26T18:42:10.077Z,28.40
2019-06-26T18:44:39.475Z,28.30
2019-06-26T18:47:08.794Z,28.30
2019-06-26T18:49:38.199Z,28.20
2019-06-26T18:52:07.941Z,28.10
2019-06-26T18:54:37.430Z,28.10
2019-06-26T18:57:06.745Z,28.00
2019-06-26T18:59:36.071Z,27.90
2019-06-26T19:02:05.407Z,27.90
2019-06-26T19:04:34.808Z,27.90
2019-06-26T19:07:04.125Z,27.90
2019-06-26T19:09:33.455Z,27.70
2019-06-26T19:12:02.809Z,27.70
2019-06-26T19:14:32.310Z,27.60
2019-06-26T19:17:01.710Z,27.50
2019-06-26T19:19:31.041Z,27.40
2019-06-26T19:22:00.374Z,27.30
2019-06-26T19:24:29.707Z,27.20
2019-06-26T19:26:59.017Z,27.10
2019-06-26T19:29:28.406Z,27.00
2019-06-26T19:31:57.741Z,26.90
2019-06-26T19:34:27.058Z,26.80
2019-06-26T19:36:56.393Z,26.80
2019-06-26T19:39:25.779Z,26.70
2019-06-26T19:41:55.114Z,26.60
2019-06-26T19:44:24.430Z,26.50
2019-06-26T19:46:53.762Z,26.50
2019-06-26T19:49:23.089Z,26.50
2019-06-26T19:51:52.419Z,26.40
2019-06-26T19:54:27.118Z,26.30
2019-06-26T19:56:52.763Z,26.30
2019-06-26T19:59:22.083Z,26.20
2019-06-26T20:01:51.616Z,26.10
2019-06-26T20:04:21.009Z,26.10
2019-06-26T20:06:50.366Z,26.00
2019-06-26T20:09:20.022Z,25.90
2019-06-26T20:11:49.366Z,25.80
2019-06-26T20:14:18.705Z,25.70
2019-06-26T20:16:48.098Z,25.70
2019-06-26T20:19:17.418Z,25.50
2019-06-26T20:21:46.745Z,25.50
2019-06-26T20:24:16.067Z,25.50
2019-06-26T20:26:47.011Z,25.40
2019-06-26T20:29:16.330Z,25.30
2019-06-26T20:31:45.672Z,25.30
2019-06-26T20:34:14.988Z,25.20
2019-06-26T20:36:44.554Z,25.10
2019-06-26T20:39:13.875Z,25.10
2019-06-26T20:41:43.214Z,25.00
2019-06-26T20:44:12.534Z,24.90
2019-06-26T20:46:42.007Z,24.80
2019-06-26T20:49:11.328Z,24.80
2019-06-26T20:51:40.657Z,24.70
2019-06-26T20:54:09.997Z,24.70
2019-06-26T20:56:39.332Z,24.70
2019-06-26T20:59:09.937Z,24.60
2019-06-26T21:01:39.324Z,24.60
2019-06-26T21:04:08.649Z,24.50
2019-06-26T21:06:38.002Z,24.40
2019-06-26T21:09:07.390Z,24.40
2019-06-26T21:11:37.993Z,24.30
2019-06-26T21:14:07.375Z,24.30
2019-06-26T21:16:37.979Z,24.20
2019-06-26T21:19:07.313Z,24.20
2019-06-26T21:21:36.640Z,24.20
2019-06-26T21:24:05.977Z,24.10
2019-06-26T21:26:35.305Z,24.00
2019-06-26T21:29:04.640Z,23.90
2019-06-26T21:31:33.960Z,23.90
2019-06-26T21:34:03.359Z,23.80
2019-06-26T21:36:32.690Z,23.70
2019-06-26T21:39:05.609Z,23.70
2019-06-26T21:41:33.517Z,23.60
2019-06-26T21:44:02.856Z,23.40
2019-06-26T21:46:32.195Z,23.40
2019-06-26T21:49:02.496Z,23.30
2019-06-26T21:51:31.808Z,23.20
2019-06-26T21:54:01.141Z,23.10
2019-06-26T21:56:48.555Z,23.00
2019-06-26T21:59:35.882Z,22.90
2019-06-26T22:02:23.192Z,22.80
2019-06-26T22:04:54.149Z,22.70
2019-06-26T22:07:40.961Z,22.70
2019-06-26T22:10:12.745Z,22.60
2019-06-26T22:12:44.028Z,22.60
2019-06-26T22:15:14.463Z,22.50
2019-06-26T22:17:43.858Z,22.40
2019-06-26T22:20:15.802Z,22.40
2019-06-26T22:22:45.116Z,22.30
2019-06-26T22:25:14.583Z,22.20
2019-06-26T22:27:43.902Z,22.10
2019-06-26T22:30:13.540Z,22.00
2019-06-26T22:32:42.887Z,21.90
2019-06-26T22:35:12.566Z,21.80
2019-06-26T22:37:41.890Z,21.70
2019-06-26T22:40:11.317Z,21.60
2019-06-26T22:42:40.694Z,21.50
2019-06-26T22:45:10.361Z,21.50
2019-06-26T22:47:39.682Z,21.40
2019-06-26T22:50:09.863Z,21.30
2019-06-26T22:52:39.188Z,21.30
2019-06-26T22:55:08.656Z,21.20
2019-06-26T22:57:37.977Z,21.10
2019-06-26T23:00:08.358Z,21.00
2019-06-26T23:02:38.337Z,20.90
2019-06-26T23:05:07.838Z,20.90
2019-06-26T23:07:37.162Z,20.80
2019-06-26T23:10:08.022Z,20.70
2019-06-26T23:12:37.344Z,20.70
2019-06-26T23:15:08.469Z,20.60
2019-06-26T23:17:37.942Z,20.50
2019-06-26T23:20:08.218Z,20.40
2019-06-26T23:22:37.540Z,20.40
2019-06-26T23:25:08.020Z,20.30
2019-06-26T23:27:37.406Z,20.30
2019-06-26T23:30:17.551Z,20.20
2019-06-26T23:32:47.246Z,20.20
2019-06-26T23:35:16.652Z,20.10
2019-06-26T23:37:45.983Z,20.10
2019-06-26T23:40:16.414Z,20.00
2019-06-26T23:42:47.113Z,19.90
2019-06-26T23:45:16.565Z,19.90
2019-06-26T23:47:45.925Z,19.80
2019-06-26T23:50:15.570Z,19.80
2019-06-26T23:52:44.895Z,19.70
2019-06-26T23:55:14.400Z,19.70
2019-06-26T23:57:57.906Z,19.60
